Time;durP1;ratioP1;P1;durP2;ratioP2;P2;SDS_P1;SDS_P2;PMS_P1;PMS_P2;Temp;Humidity;BMP_temperature;BMP_pressure;BME280_temperature;BME280_humidity;BME280_pressure;Samples;Min_cycle;Max_cycle;Signal;HPM_P1;HPM_P2
2021/09/14 00:02:01;;;;;;;;;;;20.50;63.90;;;;;;490332;242;1273;-44
2021/09/14 00:04:02;;;;;;;;;;;20.50;63.90;;;;;;490607;242;1080;-43
2021/09/14 00:06:03;;;;;;;;;;;20.50;63.90;;;;;;490105;242;1247;-43
2021/09/14 00:08:05;;;;;;;;;;;20.50;63.90;;;;;;490085;242;1233;-44
2021/09/14 00:10:06;;;;;;;;;;;20.50;63.90;;;;;;490112;242;1113;-44
2021/09/14 00:12:07;;;;;;;;;;;20.50;63.90;;;;;;490348;242;1178;-44
2021/09/14 00:14:09;;;;;;;;;;;20.50;63.90;;;;;;490567;242;1148;-44
2021/09/14 00:16:10;;;;;;;;;;;20.50;63.90;;;;;;490426;242;2196;-44
2021/09/14 00:18:11;;;;;;;;;;;20.50;64.00;;;;;;490372;242;1557;-44
2021/09/14 00:20:13;;;;;;;;;;;20.60;63.90;;;;;;490136;242;1047;-44
2021/09/14 00:22:14;;;;;;;;;;;20.50;63.80;;;;;;490481;242;1456;-44
2021/09/14 00:24:15;;;;;;;;;;;20.60;63.90;;;;;;490246;242;1271;-44
2021/09/14 00:26:17;;;;;;;;;;;20.50;63.90;;;;;;490078;242;1333;-44
2021/09/14 00:28:18;;;;;;;;;;;20.60;63.90;;;;;;490482;242;1225;-44
2021/09/14 00:30:19;;;;;;;;;;;20.60;63.80;;;;;;490540;242;1118;-44
2021/09/14 00:32:21;;;;;;;;;;;20.60;63.80;;;;;;490518;242;1151;-44
2021/09/14 00:34:22;;;;;;;;;;;20.50;63.90;;;;;;490387;242;1081;-44
2021/09/14 00:36:23;;;;;;;;;;;20.60;63.90;;;;;;489997;242;2169;-44
2021/09/14 00:38:25;;;;;;;;;;;20.60;63.90;;;;;;490432;242;1294;-43
2021/09/14 00:40:26;;;;;;;;;;;20.60;63.90;;;;;;490294;242;1039;-44
2021/09/14 00:42:27;;;;;;;;;;;20.60;63.80;;;;;;490347;242;1263;-43
2021/09/14 00:44:29;;;;;;;;;;;20.60;63.90;;;;;;490558;242;1270;-44
2021/09/14 00:46:30;;;;;;;;;;;20.60;63.90;;;;;;490446;242;1281;-44
2021/09/14 00:48:32;;;;;;;;;;;20.60;63.80;;;;;;490153;242;1141;-44
2021/09/14 00:50:33;;;;;;;;;;;20.60;63.90;;;;;;490597;242;1068;-43
2021/09/14 00:52:34;;;;;;;;;;;20.50;63.90;;;;;;490482;242;1208;-43
2021/09/14 00:54:37;;;;;;;;;;;20.60;64.00;;;;;;490218;242;1145;-43
2021/09/14 00:56:37;;;;;;;;;;;20.60;63.90;;;;;;489847;243;2181;-44
2021/09/14 00:58:38;;;;;;;;;;;20.50;63.90;;;;;;490138;242;1051;-44
2021/09/14 01:00:40;;;;;;;;;;;20.50;63.80;;;;;;490386;242;1105;-43
2021/09/14 01:02:41;;;;;;;;;;;20.60;63.90;;;;;;490107;242;1188;-44
2021/09/14 01:04:42;;;;;;;;;;;20.50;63.90;;;;;;490600;242;1163;-44
2021/09/14 01:06:44;;;;;;;;;;;20.50;63.90;;;;;;490090;242;1306;-44
2021/09/14 01:08:45;;;;;;;;;;;20.60;63.80;;;;;;490574;242;1018;-43
2021/09/14 01:10:46;;;;;;;;;;;20.60;63.90;;;;;;490386;242;1263;-44
2021/09/14 01:12:48;;;;;;;;;;;20.60;63.80;;;;;;490535;242;1067;-43
2021/09/14 01:14:49;;;;;;;;;;;20.60;63.80;;;;;;490242;242;1145;-44
2021/09/14 01:16:50;;;;;;;;;;;20.60;63.80;;;;;;490213;242;2121;-44
2021/09/14 01:18:52;;;;;;;;;;;20.50;63.90;;;;;;490636;242;1174;-44
2021/09/14 01:20:53;;;;;;;;;;;20.60;63.90;;;;;;490150;242;1185;-43
2021/09/14 01:22:55;;;;;;;;;;;20.60;63.90;;;;;;490523;242;1141;-44
2021/09/14 01:24:56;;;;;;;;;;;20.60;63.90;;;;;;490285;242;1070;-44
2021/09/14 01:26:57;;;;;;;;;;;20.60;63.90;;;;;;489957;242;1276;-44
2021/09/14 01:28:58;;;;;;;;;;;20.60;63.70;;;;;;490120;242;1197;-44
2021/09/14 01:31:00;;;;;;;;;;;20.60;63.80;;;;;;490518;242;1219;-44
2021/09/14 01:33:01;;;;;;;;;;;20.60;63.90;;;;;;490366;242;1262;-44
2021/09/14 01:35:02;;;;;;;;;;;20.50;63.90;;;;;;490573;242;1074;-44
2021/09/14 01:37:06;;;;;;;;;;;20.60;63.90;;;;;;490360;242;2133;-44
2021/09/14 01:39:05;;;;;;;;;;;20.60;63.90;;;;;;489971;242;1508;-44
2021/09/14 01:41:06;;;;;;;;;;;20.60;63.90;;;;;;490526;242;1407;-43
2021/09/14 01:43:08;;;;;;;;;;;20.60;64.00;;;;;;490543;242;1122;-44
2021/09/14 01:45:09;;;;;;;;;;;20.60;63.90;;;;;;490254;242;1115;-44
2021/09/14 01:47:10;;;;;;;;;;;20.60;63.90;;;;;;490168;242;1144;-44
2021/09/14 01:49:12;;;;;;;;;;;20.60;63.90;;;;;;490461;242;1101;-44
2021/09/14 01:51:13;;;;;;;;;;;20.60;63.80;;;;;;490431;242;1228;-43
2021/09/14 01:53:14;;;;;;;;;;;20.60;63.80;;;;;;490104;242;1076;-44
2021/09/14 01:55:18;;;;;;;;;;;20.60;63.70;;;;;;490428;242;1059;-44
2021/09/14 01:57:20;;;;;;;;;;;20.60;63.80;;;;;;490286;243;2196;-44
2021/09/14 01:59:19;;;;;;;;;;;20.60;63.80;;;;;;490133;243;1816;-44
2021/09/14 02:01:24;;;;;;;;;;;20.60;63.80;;;;;;490499;242;1333;-44
2021/09/14 02:03:29;;;;;;;;;;;20.60;63.80;;;;;;490215;243;1338;-44
2021/09/14 02:05:42;;;;;;;;;;;20.60;63.80;;;;;;489923;243;2272;-44
2021/09/14 02:07:46;;;;;;;;;;;20.60;63.90;;;;;;489570;243;2002;-44
2021/09/14 02:24:03;;;;;;;;;;;20.60;63.80;;;;;;490097;243;1056;-44
2021/09/14 02:40:16;;;;;;;;;;;20.60;63.90;;;;;;479114;242;1275;-44
2021/09/14 02:42:24;;;;;;;;;;;20.60;63.90;;;;;;489480;243;2112;-44
2021/09/14 02:58:40;;;;;;;;;;;20.60;63.70;;;;;;485928;243;1164;-44
2021/09/14 03:00:42;;;;;;;;;;;20.60;63.80;;;;;;490273;242;1166;-44
2021/09/14 03:02:44;;;;;;;;;;;20.60;63.80;;;;;;490065;242;1329;-44
2021/09/14 03:04:44;;;;;;;;;;;20.60;63.70;;;;;;490086;242;2603;-43
2021/09/14 03:06:46;;;;;;;;;;;20.60;63.70;;;;;;490256;242;1157;-44
2021/09/14 03:08:47;;;;;;;;;;;20.70;63.70;;;;;;490612;242;1040;-44
2021/09/14 03:10:49;;;;;;;;;;;20.70;63.70;;;;;;490566;242;1119;-44
2021/09/14 03:12:50;;;;;;;;;;;20.60;63.70;;;;;;490473;242;1027;-44
2021/09/14 03:14:51;;;;;;;;;;;20.60;63.80;;;;;;490591;242;1026;-44
2021/09/14 03:16:53;;;;;;;;;;;20.60;63.80;;;;;;490065;242;2189;-45
2021/09/14 03:18:54;;;;;;;;;;;20.70;63.70;;;;;;490223;242;1068;-44
2021/09/14 03:20:56;;;;;;;;;;;20.60;63.70;;;;;;490357;242;1265;-43
2021/09/14 03:22:57;;;;;;;;;;;20.70;63.80;;;;;;490083;242;1127;-44
2021/09/14 03:24:58;;;;;;;;;;;20.60;63.80;;;;;;490106;242;1074;-44
2021/09/14 03:27:00;;;;;;;;;;;20.60;63.70;;;;;;489996;242;1226;-44
2021/09/14 03:29:01;;;;;;;;;;;20.60;63.70;;;;;;490554;242;1131;-44
2021/09/14 03:31:02;;;;;;;;;;;20.60;63.70;;;;;;490446;242;1544;-44
2021/09/14 03:33:04;;;;;;;;;;;20.60;63.80;;;;;;490250;242;1278;-44
2021/09/14 03:35:05;;;;;;;;;;;20.60;63.80;;;;;;490354;242;1079;-45
2021/09/14 03:37:06;;;;;;;;;;;20.70;63.70;;;;;;490006;242;2189;-44
2021/09/14 03:39:08;;;;;;;;;;;20.70;63.60;;;;;;490568;242;1138;-43
2021/09/14 03:41:09;;;;;;;;;;;20.70;63.60;;;;;;490546;242;1308;-44
2021/09/14 03:43:10;;;;;;;;;;;20.60;63.70;;;;;;490537;242;1243;-43
2021/09/14 03:45:11;;;;;;;;;;;20.60;63.60;;;;;;490598;242;987;-44
2021/09/14 03:47:13;;;;;;;;;;;20.60;63.70;;;;;;490299;242;1223;-44
2021/09/14 03:49:14;;;;;;;;;;;20.60;63.80;;;;;;490064;242;1035;-44
2021/09/14 03:51:15;;;;;;;;;;;20.60;63.90;;;;;;490308;242;1446;-44
2021/09/14 03:53:17;;;;;;;;;;;20.60;64.00;;;;;;490098;242;1132;-44
2021/09/14 03:55:18;;;;;;;;;;;20.60;63.80;;;;;;490069;242;1291;-44
2021/09/14 03:57:20;;;;;;;;;;;20.60;63.80;;;;;;490353;242;2188;-44
2021/09/14 03:59:21;;;;;;;;;;;20.60;63.80;;;;;;490270;242;1481;-43
2021/09/14 04:01:22;;;;;;;;;;;20.60;63.70;;;;;;490279;242;1440;-44
2021/09/14 04:03:36;;;;;;;;;;;20.60;63.70;;;;;;490163;242;1038;-44
2021/09/14 04:05:40;;;;;;;;;;;20.60;63.80;;;;;;489720;243;1532;-44
2021/09/14 04:07:40;;;;;;;;;;;20.60;63.80;;;;;;489808;243;1726;-44
2021/09/14 04:09:40;;;;;;;;;;;20.60;63.80;;;;;;489925;240;2000;-44
2021/09/14 04:11:42;;;;;;;;;;;20.60;63.80;;;;;;490229;242;1222;-43
2021/09/14 04:13:42;;;;;;;;;;;20.70;63.70;;;;;;490078;242;2138;-44
2021/09/14 04:15:44;;;;;;;;;;;20.70;63.70;;;;;;490482;242;1341;-44
2021/09/14 04:17:45;;;;;;;;;;;20.60;63.70;;;;;;489996;242;2196;-43
2021/09/14 04:19:47;;;;;;;;;;;20.60;63.70;;;;;;490085;242;1114;-44
2021/09/14 04:21:49;;;;;;;;;;;20.60;63.80;;;;;;490011;242;1365;-44
2021/09/14 04:23:49;;;;;;;;;;;20.60;63.90;;;;;;490082;243;2289;-44
2021/09/14 04:25:51;;;;;;;;;;;20.60;63.80;;;;;;490202;242;1479;-43
2021/09/14 04:27:52;;;;;;;;;;;20.70;63.70;;;;;;490005;242;1189;-44
2021/09/14 04:29:53;;;;;;;;;;;20.70;63.60;;;;;;489973;242;1063;-44
2021/09/14 04:31:55;;;;;;;;;;;20.70;63.70;;;;;;489969;242;1604;-44
2021/09/14 04:33:56;;;;;;;;;;;20.70;63.70;;;;;;490188;242;1204;-44
2021/09/14 04:35:57;;;;;;;;;;;20.70;63.70;;;;;;490149;242;1652;-44
2021/09/14 04:37:59;;;;;;;;;;;20.70;63.70;;;;;;489982;242;2114;-44
2021/09/14 04:40:00;;;;;;;;;;;20.70;63.60;;;;;;490478;242;1085;-44
2021/09/14 04:42:01;;;;;;;;;;;20.70;63.60;;;;;;490093;242;1219;-44
2021/09/14 04:44:03;;;;;;;;;;;20.70;63.60;;;;;;490051;242;1221;-44
2021/09/14 04:46:04;;;;;;;;;;;20.70;63.60;;;;;;489869;242;1309;-44
2021/09/14 04:48:06;;;;;;;;;;;20.70;63.60;;;;;;490260;242;1076;-44
2021/09/14 04:50:07;;;;;;;;;;;20.70;63.60;;;;;;490308;242;1174;-44
2021/09/14 04:52:08;;;;;;;;;;;20.70;63.60;;;;;;490027;242;1253;-44
2021/09/14 04:54:10;;;;;;;;;;;20.70;63.60;;;;;;489999;242;1079;-44
2021/09/14 04:56:11;;;;;;;;;;;20.70;63.70;;;;;;489689;240;1190;-44
2021/09/14 04:58:12;;;;;;;;;;;20.60;63.70;;;;;;490358;242;2121;-44
2021/09/14 05:00:15;;;;;;;;;;;20.70;63.70;;;;;;489924;242;1041;-44
2021/09/14 05:02:15;;;;;;;;;;;20.70;63.70;;;;;;489925;242;1930;-44
2021/09/14 05:04:16;;;;;;;;;;;20.60;63.80;;;;;;489926;242;1170;-44
2021/09/14 05:06:17;;;;;;;;;;;20.70;63.80;;;;;;489812;242;1243;-44
2021/09/14 05:08:19;;;;;;;;;;;20.60;63.70;;;;;;489776;242;1181;-44
2021/09/14 05:10:20;;;;;;;;;;;20.70;63.80;;;;;;489808;242;1118;-44
2021/09/14 05:12:21;;;;;;;;;;;20.60;63.80;;;;;;489754;242;1287;-44
2021/09/14 05:14:23;;;;;;;;;;;20.60;63.80;;;;;;489760;242;1155;-44
2021/09/14 05:16:25;;;;;;;;;;;20.60;63.80;;;;;;490024;242;1189;-44
2021/09/14 05:18:27;;;;;;;;;;;20.70;63.80;;;;;;489777;242;2102;-44
2021/09/14 05:20:27;;;;;;;;;;;20.70;63.80;;;;;;489841;243;2383;-44
2021/09/14 05:22:32;;;;;;;;;;;20.70;63.70;;;;;;489716;242;1334;-44
2021/09/14 05:24:33;;;;;;;;;;;20.70;63.80;;;;;;489823;242;2562;-44
2021/09/14 05:26:34;;;;;;;;;;;20.70;63.80;;;;;;489877;242;1336;-44
2021/09/14 05:28:36;;;;;;;;;;;20.70;63.80;;;;;;490019;242;1217;-43
2021/09/14 05:30:37;;;;;;;;;;;20.70;63.80;;;;;;489884;242;1101;-44
2021/09/14 05:32:38;;;;;;;;;;;20.60;63.80;;;;;;489769;242;1191;-44
2021/09/14 05:34:40;;;;;;;;;;;20.60;63.80;;;;;;489923;242;1070;-44
2021/09/14 05:36:41;;;;;;;;;;;20.70;63.70;;;;;;489875;242;1116;-44
2021/09/14 05:38:43;;;;;;;;;;;20.70;63.60;;;;;;489814;242;2114;-43
2021/09/14 05:40:44;;;;;;;;;;;20.70;63.60;;;;;;489676;242;1171;-44
2021/09/14 05:42:45;;;;;;;;;;;20.70;63.70;;;;;;489675;242;1406;-43
2021/09/14 05:44:47;;;;;;;;;;;20.70;63.70;;;;;;489977;242;1214;-44
2021/09/14 05:46:48;;;;;;;;;;;20.70;63.60;;;;;;489825;242;1330;-44
2021/09/14 05:48:49;;;;;;;;;;;20.70;63.70;;;;;;489925;242;1085;-43
2021/09/14 05:50:50;;;;;;;;;;;20.70;63.60;;;;;;489699;242;1046;-44
2021/09/14 05:52:52;;;;;;;;;;;20.70;63.60;;;;;;489655;242;1213;-44
2021/09/14 05:54:53;;;;;;;;;;;20.70;63.60;;;;;;489642;242;1113;-44
2021/09/14 05:56:54;;;;;;;;;;;20.70;63.60;;;;;;489347;242;1306;-44
2021/09/14 05:58:56;;;;;;;;;;;20.70;63.60;;;;;;489314;242;2188;-44
2021/09/14 06:00:57;;;;;;;;;;;20.70;63.70;;;;;;489279;242;1294;-43
2021/09/14 06:02:58;;;;;;;;;;;20.70;63.70;;;;;;489509;242;1180;-44
2021/09/14 06:05:00;;;;;;;;;;;20.70;63.70;;;;;;489592;242;1151;-44
2021/09/14 06:07:01;;;;;;;;;;;20.70;63.70;;;;;;489314;242;1106;-44
2021/09/14 06:09:03;;;;;;;;;;;20.70;63.70;;;;;;489301;242;1209;-44
2021/09/14 06:11:04;;;;;;;;;;;20.70;63.60;;;;;;489256;242;1304;-43
2021/09/14 06:13:05;;;;;;;;;;;20.70;63.70;;;;;;489373;242;1070;-44
2021/09/14 06:15:07;;;;;;;;;;;20.70;63.70;;;;;;489292;242;1058;-44
2021/09/14 06:17:08;;;;;;;;;;;20.70;63.80;;;;;;489231;242;2196;-44
2021/09/14 06:19:11;;;;;;;;;;;20.70;63.60;;;;;;489468;242;1055;-44
2021/09/14 06:21:13;;;;;;;;;;;20.70;63.60;;;;;;489412;243;2328;-44
2021/09/14 06:23:12;;;;;;;;;;;20.70;63.60;;;;;;489254;242;2255;-44
2021/09/14 06:25:13;;;;;;;;;;;20.70;63.50;;;;;;489397;242;1062;-44
2021/09/14 06:27:15;;;;;;;;;;;20.70;63.50;;;;;;489264;242;1196;-44
2021/09/14 06:29:16;;;;;;;;;;;20.70;63.50;;;;;;489377;242;1431;-44
2021/09/14 06:31:17;;;;;;;;;;;20.70;63.60;;;;;;489291;242;1250;-45
2021/09/14 06:33:19;;;;;;;;;;;20.70;63.60;;;;;;488820;242;1302;-44
2021/09/14 06:35:20;;;;;;;;;;;20.70;63.60;;;;;;489293;242;1204;-44
2021/09/14 06:37:22;;;;;;;;;;;20.80;63.60;;;;;;489138;242;2196;-44
2021/09/14 06:39:23;;;;;;;;;;;20.70;63.60;;;;;;489608;242;1093;-43
2021/09/14 06:41:25;;;;;;;;;;;20.70;63.60;;;;;;489287;242;1223;-46
2021/09/14 06:43:26;;;;;;;;;;;20.70;63.60;;;;;;489257;243;2029;-47
2021/09/14 06:45:27;;;;;;;;;;;20.70;63.70;;;;;;488876;242;1043;-46
2021/09/14 06:47:28;;;;;;;;;;;20.70;63.60;;;;;;488938;242;1425;-46
2021/09/14 06:49:30;;;;;;;;;;;20.70;63.60;;;;;;489225;242;1115;-46
2021/09/14 06:51:31;;;;;;;;;;;20.70;63.70;;;;;;489183;242;2030;-46
2021/09/14 06:53:32;;;;;;;;;;;20.80;63.70;;;;;;489328;242;1182;-46
2021/09/14 06:55:33;;;;;;;;;;;20.70;63.60;;;;;;489296;242;1186;-46
2021/09/14 06:57:35;;;;;;;;;;;20.70;63.70;;;;;;489122;242;2193;-46
2021/09/14 06:59:36;;;;;;;;;;;20.70;63.60;;;;;;489078;242;1376;-46
2021/09/14 07:01:37;;;;;;;;;;;20.70;63.60;;;;;;488924;242;1246;-46
2021/09/14 07:03:39;;;;;;;;;;;20.70;63.60;;;;;;488855;242;1154;-46
2021/09/14 07:05:40;;;;;;;;;;;20.70;63.50;;;;;;489083;242;1105;-47
2021/09/14 07:07:41;;;;;;;;;;;20.70;63.60;;;;;;489414;242;1187;-47
2021/09/14 07:09:43;;;;;;;;;;;20.70;63.60;;;;;;489909;242;990;-46
2021/09/14 07:11:44;;;;;;;;;;;20.70;63.60;;;;;;489396;242;1266;-46
2021/09/14 07:13:45;;;;;;;;;;;20.70;63.60;;;;;;489906;242;963;-46
2021/09/14 07:15:47;;;;;;;;;;;20.80;63.60;;;;;;489937;242;1142;-46
2021/09/14 07:17:48;;;;;;;;;;;20.80;63.60;;;;;;489428;242;2391;-46
2021/09/14 07:19:49;;;;;;;;;;;20.80;63.60;;;;;;489240;242;1109;-46
2021/09/14 07:21:51;;;;;;;;;;;20.80;63.70;;;;;;489830;242;1169;-46
2021/09/14 07:23:52;;;;;;;;;;;20.70;63.60;;;;;;489997;242;1099;-44
2021/09/14 07:25:53;;;;;;;;;;;20.80;63.60;;;;;;489433;242;1362;-44
2021/09/14 07:27:54;;;;;;;;;;;20.80;63.60;;;;;;489577;242;1126;-44
2021/09/14 07:29:56;;;;;;;;;;;20.80;63.50;;;;;;489825;242;1170;-44
2021/09/14 07:31:57;;;;;;;;;;;20.80;63.50;;;;;;489650;242;1202;-44
2021/09/14 07:33:58;;;;;;;;;;;20.80;63.50;;;;;;489568;242;1173;-44
2021/09/14 07:36:00;;;;;;;;;;;20.80;63.60;;;;;;490040;242;1025;-44
2021/09/14 07:38:01;;;;;;;;;;;20.70;63.60;;;;;;489595;242;2173;-44
2021/09/14 07:40:02;;;;;;;;;;;20.70;63.60;;;;;;490013;242;832;-44
2021/09/14 07:42:04;;;;;;;;;;;20.70;63.60;;;;;;489502;242;1379;-44
2021/09/14 07:44:05;;;;;;;;;;;20.70;63.60;;;;;;489512;242;1037;-44
2021/09/14 07:46:09;;;;;;;;;;;20.80;63.60;;;;;;489452;242;1116;-44
2021/09/14 07:48:08;;;;;;;;;;;20.80;63.60;;;;;;489511;243;2118;-44
2021/09/14 07:50:10;;;;;;;;;;;20.80;63.60;;;;;;489247;242;1315;-44
2021/09/14 07:52:12;;;;;;;;;;;20.70;63.70;;;;;;489243;242;1070;-44
2021/09/14 07:54:12;;;;;;;;;;;20.70;63.60;;;;;;489345;242;2048;-44
2021/09/14 07:56:14;;;;;;;;;;;20.80;63.70;;;;;;489256;242;1120;-44
2021/09/14 07:58:15;;;;;;;;;;;20.80;63.60;;;;;;488897;242;2181;-44
2021/09/14 08:00:16;;;;;;;;;;;20.70;63.50;;;;;;489403;242;843;-44
2021/09/14 08:02:18;;;;;;;;;;;20.80;63.60;;;;;;489743;242;1100;-44
2021/09/14 08:04:19;;;;;;;;;;;20.80;63.60;;;;;;489405;242;1123;-44
2021/09/14 08:06:20;;;;;;;;;;;20.70;63.60;;;;;;489400;242;1126;-44
2021/09/14 08:08:22;;;;;;;;;;;20.80;63.60;;;;;;489842;242;1093;-44
2021/09/14 08:10:24;;;;;;;;;;;20.80;63.60;;;;;;489993;242;869;-44
2021/09/14 08:12:26;;;;;;;;;;;20.80;63.50;;;;;;489920;242;1186;-44
2021/09/14 08:14:27;;;;;;;;;;;20.80;63.50;;;;;;489804;242;882;-43
2021/09/14 08:16:28;;;;;;;;;;;20.80;63.50;;;;;;489195;242;1320;-44
2021/09/14 08:18:30;;;;;;;;;;;20.80;63.60;;;;;;489776;242;2180;-44
2021/09/14 08:20:31;;;;;;;;;;;20.80;63.60;;;;;;489833;242;1121;-44
2021/09/14 08:22:32;;;;;;;;;;;20.80;63.60;;;;;;489748;242;1530;-44
2021/09/14 08:24:33;;;;;;;;;;;20.80;63.60;;;;;;489952;242;845;-44
2021/09/14 08:26:35;;;;;;;;;;;20.80;63.70;;;;;;489869;242;1157;-44
2021/09/14 08:28:36;;;;;;;;;;;20.80;63.70;;;;;;489461;242;1056;-44
2021/09/14 08:30:37;;;;;;;;;;;20.80;63.60;;;;;;489509;242;897;-44
2021/09/14 08:32:39;;;;;;;;;;;20.80;63.70;;;;;;489903;242;1072;-44
2021/09/14 08:34:40;;;;;;;;;;;20.70;63.70;;;;;;489430;242;866;-44
2021/09/14 08:36:41;;;;;;;;;;;20.70;63.70;;;;;;489784;242;867;-44
2021/09/14 08:38:44;;;;;;;;;;;20.70;63.70;;;;;;489788;242;2185;-43
2021/09/14 08:40:45;;;;;;;;;;;20.80;63.70;;;;;;489707;242;1355;-44
2021/09/14 08:42:47;;;;;;;;;;;20.80;63.60;;;;;;489298;242;1231;-44
2021/09/14 08:44:48;;;;;;;;;;;20.80;63.60;;;;;;489329;242;967;-44
2021/09/14 08:46:49;;;;;;;;;;;20.80;63.70;;;;;;489633;242;1080;-44
2021/09/14 08:48:51;;;;;;;;;;;20.80;63.40;;;;;;489261;242;1205;-44
2021/09/14 08:50:52;;;;;;;;;;;20.90;63.10;;;;;;489355;242;1130;-44
2021/09/14 08:52:53;;;;;;;;;;;21.10;62.70;;;;;;489453;242;1184;-44
2021/09/14 08:54:54;;;;;;;;;;;21.20;62.20;;;;;;489967;242;864;-44
2021/09/14 08:56:56;;;;;;;;;;;21.30;61.80;;;;;;489906;242;988;-44
2021/09/14 08:58:57;;;;;;;;;;;21.40;61.50;;;;;;489995;242;2193;-44
2021/09/14 09:00:58;;;;;;;;;;;21.40;61.30;;;;;;489949;242;1004;-44
2021/09/14 09:03:00;;;;;;;;;;;21.50;61.10;;;;;;489842;242;1471;-45
2021/09/14 09:05:01;;;;;;;;;;;21.60;61.10;;;;;;489765;242;1106;-44
2021/09/14 09:07:02;;;;;;;;;;;21.60;60.80;;;;;;489614;242;1036;-44
2021/09/14 09:09:04;;;;;;;;;;;21.70;60.80;;;;;;489845;242;1221;-44
2021/09/14 09:11:05;;;;;;;;;;;21.70;60.70;;;;;;489883;242;1236;-44
2021/09/14 09:13:06;;;;;;;;;;;21.70;60.60;;;;;;489434;242;1200;-44
2021/09/14 09:15:08;;;;;;;;;;;21.80;60.50;;;;;;489464;242;1088;-44
2021/09/14 09:17:10;;;;;;;;;;;21.80;60.40;;;;;;489379;242;1099;-44
2021/09/14 09:19:10;;;;;;;;;;;21.80;60.30;;;;;;489794;242;2230;-44
2021/09/14 09:21:12;;;;;;;;;;;21.90;60.30;;;;;;489882;242;1013;-44
2021/09/14 09:23:13;;;;;;;;;;;21.90;60.20;;;;;;489889;242;1143;-44
2021/09/14 09:25:14;;;;;;;;;;;21.90;60.20;;;;;;489849;242;855;-44
2021/09/14 09:27:16;;;;;;;;;;;21.90;60.10;;;;;;489671;242;1107;-44
2021/09/14 09:29:17;;;;;;;;;;;21.90;60.00;;;;;;489729;242;1066;-44
2021/09/14 09:31:18;;;;;;;;;;;21.90;60.00;;;;;;489650;242;1133;-44
2021/09/14 09:33:19;;;;;;;;;;;22.00;60.00;;;;;;489693;242;1146;-44
2021/09/14 09:35:21;;;;;;;;;;;22.00;59.90;;;;;;489925;242;1111;-44
2021/09/14 09:37:22;;;;;;;;;;;22.00;59.90;;;;;;489873;242;1457;-44
2021/09/14 09:39:23;;;;;;;;;;;22.00;59.80;;;;;;489361;242;2188;-45
2021/09/14 09:41:25;;;;;;;;;;;22.00;59.80;;;;;;489434;242;1126;-44
2021/09/14 09:43:26;;;;;;;;;;;22.10;59.80;;;;;;489767;242;1288;-44
2021/09/14 09:45:27;;;;;;;;;;;22.10;59.70;;;;;;489421;242;869;-44
2021/09/14 09:47:29;;;;;;;;;;;22.10;59.70;;;;;;489811;242;1376;-45
2021/09/14 09:49:30;;;;;;;;;;;22.10;59.70;;;;;;489872;242;853;-45
2021/09/14 09:51:31;;;;;;;;;;;22.10;59.60;;;;;;489392;242;1071;-44
2021/09/14 09:53:33;;;;;;;;;;;22.10;59.50;;;;;;489425;242;926;-44
2021/09/14 09:55:34;;;;;;;;;;;22.10;59.50;;;;;;489939;242;1041;-44
2021/09/14 09:57:35;;;;;;;;;;;22.10;59.50;;;;;;489822;242;1089;-44
2021/09/14 09:59:37;;;;;;;;;;;22.20;59.60;;;;;;489805;242;2180;-44
2021/09/14 10:01:38;;;;;;;;;;;22.20;59.50;;;;;;489651;242;1164;-44
2021/09/14 10:03:39;;;;;;;;;;;22.20;59.50;;;;;;489718;242;1092;-43
2021/09/14 10:05:40;;;;;;;;;;;22.20;59.50;;;;;;489819;242;1112;-44
2021/09/14 10:07:42;;;;;;;;;;;22.20;59.40;;;;;;489649;242;1085;-44
2021/09/14 10:09:43;;;;;;;;;;;22.20;59.40;;;;;;489940;242;931;-44
2021/09/14 10:11:44;;;;;;;;;;;22.20;59.40;;;;;;489454;242;1051;-45
2021/09/14 10:13:46;;;;;;;;;;;22.20;59.40;;;;;;489903;242;1038;-44
2021/09/14 10:15:47;;;;;;;;;;;22.20;59.40;;;;;;489408;242;1315;-44
2021/09/14 10:17:49;;;;;;;;;;;22.20;59.30;;;;;;489806;242;1167;-44
2021/09/14 10:19:50;;;;;;;;;;;22.30;59.30;;;;;;489763;242;2176;-43
2021/09/14 10:21:51;;;;;;;;;;;22.30;59.30;;;;;;489640;242;1080;-44
2021/09/14 10:23:53;;;;;;;;;;;22.30;59.30;;;;;;489331;242;1111;-44
2021/09/14 10:25:54;;;;;;;;;;;22.30;59.30;;;;;;489408;242;1133;-44
2021/09/14 10:27:56;;;;;;;;;;;22.30;59.30;;;;;;489327;242;1042;-44
2021/09/14 10:29:57;;;;;;;;;;;22.30;59.20;;;;;;489543;242;855;-44
2021/09/14 10:31:58;;;;;;;;;;;22.30;59.30;;;;;;489873;242;1156;-43
2021/09/14 10:33:59;;;;;;;;;;;22.30;59.20;;;;;;489474;242;1167;-44
2021/09/14 10:36:01;;;;;;;;;;;22.40;59.20;;;;;;489410;242;1334;-44
2021/09/14 10:38:02;;;;;;;;;;;22.30;59.20;;;;;;489925;242;1356;-44
2021/09/14 10:40:03;;;;;;;;;;;22.40;59.20;;;;;;489675;242;2189;-44
2021/09/14 10:42:04;;;;;;;;;;;22.40;59.20;;;;;;489168;242;1257;-44
2021/09/14 10:44:08;;;;;;;;;;;22.40;59.20;;;;;;489714;242;861;-44
2021/09/14 10:46:09;;;;;;;;;;;22.40;59.10;;;;;;489225;242;1239;-44
2021/09/14 10:48:10;;;;;;;;;;;22.40;59.10;;;;;;489708;242;1117;-44
2021/09/14 10:50:11;;;;;;;;;;;22.40;59.10;;;;;;489800;242;1145;-44
2021/09/14 10:52:13;;;;;;;;;;;22.40;59.10;;;;;;489770;242;999;-44
2021/09/14 10:54:14;;;;;;;;;;;22.40;59.10;;;;;;489361;242;1025;-44
2021/09/14 10:56:15;;;;;;;;;;;22.40;59.00;;;;;;489839;242;1161;-44
2021/09/14 10:58:17;;;;;;;;;;;22.40;59.00;;;;;;489399;242;1132;-44
2021/09/14 11:00:18;;;;;;;;;;;22.50;59.10;;;;;;489748;242;2192;-44
2021/09/14 11:02:19;;;;;;;;;;;22.50;59.00;;;;;;489378;242;1024;-44
2021/09/14 11:04:21;;;;;;;;;;;22.50;59.00;;;;;;489922;242;1120;-44
2021/09/14 11:06:22;;;;;;;;;;;22.50;59.00;;;;;;489311;242;1188;-44
2021/09/14 11:08:24;;;;;;;;;;;22.50;59.00;;;;;;489722;242;1136;-44
2021/09/14 11:10:27;;;;;;;;;;;22.50;59.00;;;;;;489395;242;827;-44
2021/09/14 11:12:26;;;;;;;;;;;22.50;59.00;;;;;;489642;243;1341;-44
2021/09/14 11:14:27;;;;;;;;;;;22.50;58.90;;;;;;489386;242;911;-44
2021/09/14 11:16:29;;;;;;;;;;;22.50;58.90;;;;;;489911;242;1139;-44
2021/09/14 11:18:30;;;;;;;;;;;22.50;58.90;;;;;;489429;242;943;-44
2021/09/14 11:20:31;;;;;;;;;;;22.50;58.90;;;;;;489280;242;2173;-45
2021/09/14 11:22:33;;;;;;;;;;;22.50;58.90;;;;;;489601;243;1434;-44
2021/09/14 11:24:34;;;;;;;;;;;22.50;59.00;;;;;;489802;242;1138;-44
2021/09/14 11:26:35;;;;;;;;;;;22.50;58.90;;;;;;489655;242;1058;-44
2021/09/14 11:28:37;;;;;;;;;;;22.50;58.90;;;;;;489857;242;1123;-44
2021/09/14 11:30:40;;;;;;;;;;;22.50;59.00;;;;;;489892;242;1048;-44
2021/09/14 11:32:39;;;;;;;;;;;22.60;59.00;;;;;;489336;242;1870;-44
2021/09/14 11:34:41;;;;;;;;;;;22.50;59.00;;;;;;489463;242;1081;-44
2021/09/14 11:36:42;;;;;;;;;;;22.60;59.00;;;;;;489351;242;1101;-44
2021/09/14 11:38:43;;;;;;;;;;;22.60;59.00;;;;;;489901;242;1191;-44
2021/09/14 11:40:45;;;;;;;;;;;22.60;59.00;;;;;;489443;242;2193;-44
2021/09/14 11:42:46;;;;;;;;;;;22.60;58.90;;;;;;489519;242;1058;-44
2021/09/14 11:44:47;;;;;;;;;;;22.60;58.90;;;;;;489435;242;864;-44
2021/09/14 11:46:49;;;;;;;;;;;22.60;58.90;;;;;;489317;242;1091;-44
2021/09/14 11:48:50;;;;;;;;;;;22.60;58.90;;;;;;489390;242;955;-44
2021/09/14 11:50:51;;;;;;;;;;;22.60;59.00;;;;;;489706;242;1169;-44
2021/09/14 11:52:53;;;;;;;;;;;22.60;59.00;;;;;;489238;242;1184;-44
2021/09/14 11:54:55;;;;;;;;;;;22.60;59.00;;;;;;489900;242;887;-44
2021/09/14 11:56:57;;;;;;;;;;;22.60;58.90;;;;;;489809;242;1124;-44
2021/09/14 11:58:58;;;;;;;;;;;22.60;58.90;;;;;;489922;242;879;-44
2021/09/14 12:01:01;;;;;;;;;;;22.60;58.90;;;;;;489270;242;2185;-44
2021/09/14 12:03:01;;;;;;;;;;;22.60;58.90;;;;;;489213;243;1515;-43
2021/09/14 12:05:02;;;;;;;;;;;22.60;58.90;;;;;;489352;242;1436;-44
2021/09/14 12:07:04;;;;;;;;;;;22.60;58.90;;;;;;489758;242;1093;-44
2021/09/14 12:09:08;;;;;;;;;;;22.70;58.90;;;;;;489800;242;1121;-44
2021/09/14 12:11:06;;;;;;;;;;;22.70;58.80;;;;;;489789;243;2034;-45
2021/09/14 12:13:08;;;;;;;;;;;22.70;58.90;;;;;;489486;242;1118;-44
2021/09/14 12:15:09;;;;;;;;;;;22.70;58.90;;;;;;489785;242;1078;-44
2021/09/14 12:17:10;;;;;;;;;;;22.70;58.80;;;;;;489302;242;1206;-44
2021/09/14 12:19:12;;;;;;;;;;;22.70;58.80;;;;;;489435;242;1142;-44
2021/09/14 12:21:13;;;;;;;;;;;22.70;58.80;;;;;;489441;242;2179;-45
2021/09/14 12:23:14;;;;;;;;;;;22.70;58.80;;;;;;489433;242;1080;-44
2021/09/14 12:25:15;;;;;;;;;;;22.70;58.80;;;;;;489403;242;883;-44
2021/09/14 12:27:17;;;;;;;;;;;22.70;58.80;;;;;;489634;242;1130;-44
2021/09/14 12:29:18;;;;;;;;;;;22.70;58.80;;;;;;489833;242;1156;-45
2021/09/14 12:31:19;;;;;;;;;;;22.70;58.70;;;;;;489492;242;1157;-44
2021/09/14 12:33:21;;;;;;;;;;;22.70;58.70;;;;;;489241;242;1088;-44
2021/09/14 12:35:22;;;;;;;;;;;22.80;58.70;;;;;;489823;242;1093;-44
2021/09/14 12:37:23;;;;;;;;;;;22.70;58.70;;;;;;489300;242;1106;-44
2021/09/14 12:39:25;;;;;;;;;;;22.70;58.70;;;;;;489864;242;2196;-44
2021/09/14 12:41:26;;;;;;;;;;;22.80;58.70;;;;;;489838;242;1213;-44